METAR AND TAF INFORMATION
METAR FOR FAWB
ADDS - METARS form results

(0750 UTC 27 May 2019)
Data provider http://aviationweather.gov/metar/data/
 
Forecast for: FAWB (WONDERBOOM/PRETO, ZA)
Text: TAF FAWB 270620Z 2707/2718 VRB03KT CAVOK TX22/2713Z TN15/2707Z
Forecast period: 0700 to 1800 UTC 27 May 2019
Forecast type: FROM: standard forecast or significant change
Winds: variable direction winds at 3 MPH (3 knots; 1.5 m/s)
Visibility: 6 or more miles 10+ km)
Ceiling: unknown
Clouds: missing
Weather: no significant weather forecast for this period

 AIRPORT MAP

 RUNWAY INFORMATION
Runway 06 Runway length 4200 ft Runway width 72 ft
Runway elevation 4070 ft Runway displaced threshold 0 ft Runway heading 44
Runway 24 Runway length 4200 ft Runway width 72 ft
Runway elevation 4073 ft Runway displaced threshold 0 ft Runway heading 224
Runway 11 Runway length 5998 ft Runway width 98 ft
Runway elevation 4038 ft Runway displaced threshold 0 ft Runway heading 93
Runway 29 Runway length 5998 ft Runway width 98 ft
Runway elevation 4095 ft Runway displaced threshold 0 ft Runway heading 273

 AIRPORT FREQUENCIES
Type APP Name APP Frequency 118.35 MHZ
Type Gnd Name Ground Frequency 120.6 MHZ
Type TWR Name TWR Frequency 118.35 MHZ

 AIRPORT NEAR NAVIGATION AIDS
Type NDB Name Wonderboom Frequency 258 KHZ
Type NDB Name Wonderboom Frequency 230 KHZ



The South Africal Virtual Air Force